Time;durP1;ratioP1;P1;durP2;ratioP2;P2;SDS_P1;SDS_P2;PMS_P1;PMS_P2;Temp;Humidity;BMP_temperature;BMP_pressure;BME280_temperature;BME280_humidity;BME280_pressure;Samples;Min_cycle;Max_cycle;Signal;HPM_P1;HPM_P2
2022/04/25 00:00:18;;;;;;;10.97;10.57;;;22.80;48.70;;;;;;5092536;28;20455;-45
2022/04/25 00:02:45;;;;;;;10.90;10.50;;;22.70;48.60;;;;;;5092325;28;20451;-43
2022/04/25 00:05:12;;;;;;;10.47;10.17;;;22.70;48.70;;;;;;5092272;28;20442;-46
2022/04/25 00:07:39;;;;;;;11.43;11.03;;;22.70;48.70;;;;;;5091549;28;20847;-43
2022/04/25 00:10:07;;;;;;;10.67;10.37;;;22.60;48.60;;;;;;5092269;28;20438;-44
2022/04/25 00:12:33;;;;;;;10.90;10.57;;;22.60;48.70;;;;;;5092324;28;20811;-43
2022/04/25 00:15:01;;;;;;;11.27;10.80;;;22.60;48.80;;;;;;5091944;28;20978;-43
2022/04/25 00:17:28;;;;;;;11.03;10.63;;;22.60;48.80;;;;;;5071606;28;20454;-45
2022/04/25 00:19:55;;;;;;;10.63;10.33;;;22.50;48.80;;;;;;5071907;28;20440;-47
2022/04/25 00:22:22;;;;;;;11.23;10.83;;;22.50;48.90;;;;;;5071869;28;20444;-49
2022/04/25 00:24:50;;;;;;;11.20;10.90;;;22.50;48.90;;;;;;5071789;28;20820;-48
2022/04/25 00:27:17;;;;;;;11.03;10.73;;;22.50;49.00;;;;;;5072457;28;20567;-44
2022/04/25 00:29:43;;;;;;;11.07;10.73;;;22.50;49.10;;;;;;5091627;28;20439;-46
2022/04/25 00:32:11;;;;;;;11.40;11.00;;;22.40;49.10;;;;;;5092162;28;20458;-43
2022/04/25 00:34:38;;;;;;;10.73;10.30;;;22.40;49.20;;;;;;5091971;28;20637;-46
2022/04/25 00:37:05;;;;;;;9.90;9.60;;;22.40;49.30;;;;;;5091914;28;20435;-43
2022/04/25 00:39:32;;;;;;;9.97;9.67;;;22.50;49.30;;;;;;5091749;28;20450;-44
2022/04/25 00:41:59;;;;;;;10.40;10.10;;;22.70;49.00;;;;;;5091800;28;20439;-44
2022/04/25 00:44:26;;;;;;;11.00;10.60;;;22.80;48.80;;;;;;5115907;22;20979;-47
2022/04/25 00:46:54;;;;;;;10.03;9.73;;;22.90;48.60;;;;;;5083266;28;20471;-47
2022/04/25 00:49:23;;;;;;;9.37;9.07;;;22.90;48.50;;;;;;5091708;28;20815;-47
2022/04/25 00:51:51;;;;;;;10.20;9.90;;;22.90;48.50;;;;;;5091372;28;20446;-47
2022/04/25 00:54:18;;;;;;;11.03;10.73;;;23.00;48.40;;;;;;5092082;28;20999;-47
2022/04/25 00:56:46;;;;;;;11.13;10.83;;;22.90;48.30;;;;;;5091773;28;20803;-47
2022/04/25 00:59:15;;;;;;;11.20;10.80;;;23.00;48.30;;;;;;5091636;28;20542;-47
2022/04/25 01:01:42;;;;;;;10.50;10.20;;;22.90;48.20;;;;;;5071627;28;20443;-47
2022/04/25 01:04:09;;;;;;;10.43;10.13;;;22.90;48.20;;;;;;5071572;28;20467;-47
2022/04/25 01:06:38;;;;;;;10.40;10.10;;;22.90;48.30;;;;;;5071269;28;20448;-47
2022/04/25 01:09:05;;;;;;;10.87;10.50;;;22.90;48.30;;;;;;5071323;28;20435;-47
2022/04/25 01:11:32;;;;;;;10.17;9.87;;;22.90;48.30;;;;;;5089331;28;20453;-47
2022/04/25 01:14:09;;;;;;;10.03;9.73;;;22.90;48.30;;;;;;5091781;28;20466;-47
2022/04/25 01:16:36;;;;;;;9.90;9.60;;;22.90;48.30;;;;;;5091443;28;20438;-48
2022/04/25 01:19:03;;;;;;;10.90;10.50;;;22.90;48.40;;;;;;5091388;28;20439;-47
2022/04/25 01:21:37;;;;;;;10.13;9.83;;;22.90;48.50;;;;;;5093799;28;20824;-47
2022/04/25 01:29:32;;;;;;;10.33;10.03;;;22.80;48.60;;;;;;5094179;28;20425;-47
2022/04/25 01:31:59;;;;;;;10.23;9.70;;;22.80;48.60;;;;;;5075084;28;20458;-47
2022/04/25 01:34:26;;;;;;;10.33;10.03;;;22.80;48.70;;;;;;5074944;28;20467;-47
2022/04/25 01:36:52;;;;;;;8.63;8.33;;;22.70;48.70;;;;;;5074993;28;20450;-47
2022/04/25 01:39:20;;;;;;;9.47;9.23;;;22.70;48.80;;;;;;5074881;28;20451;-47
2022/04/25 01:41:47;;;;;;;9.90;9.70;;;22.70;48.80;;;;;;5078411;28;20439;-46
2022/04/25 01:44:14;;;;;;;8.90;8.70;;;22.70;48.90;;;;;;5094997;28;20470;-47
2022/04/25 01:46:40;;;;;;;10.00;9.70;;;22.70;48.90;;;;;;5094926;28;20806;-47
2022/04/25 01:49:07;;;;;;;10.53;10.23;;;22.70;48.90;;;;;;5094881;28;20486;-47
2022/04/25 01:51:34;;;;;;;9.37;9.07;;;22.60;48.90;;;;;;5078994;28;20474;-46
2022/04/25 01:54:01;;;;;;;9.63;9.33;;;22.60;49.00;;;;;;5074607;28;20976;-47
2022/04/25 01:56:29;;;;;;;9.27;9.07;;;22.60;49.10;;;;;;5074418;28;20451;-48
2022/04/25 01:58:55;;;;;;;9.43;9.10;;;22.60;49.10;;;;;;5081602;28;20439;-47
2022/04/25 02:01:22;;;;;;;9.90;9.60;;;22.60;49.20;;;;;;5094702;28;20473;-47
2022/04/25 02:03:49;;;;;;;9.63;9.33;;;22.50;49.20;;;;;;5094757;28;20955;-47
2022/04/25 02:06:15;;;;;;;9.20;9.00;;;22.50;49.20;;;;;;5094696;28;20457;-47
2022/04/25 02:08:42;;;;;;;9.90;9.60;;;22.50;49.20;;;;;;5092717;28;20482;-47
2022/04/25 02:11:21;;;;;;;9.80;9.60;;;22.50;49.30;;;;;;5094628;28;20958;-46
2022/04/25 02:13:51;;;;;;;9.67;9.20;;;22.50;49.30;;;;;;5094650;28;20520;-47
2022/04/25 02:16:18;;;;;;;9.70;9.40;;;22.40;49.40;;;;;;5094444;28;20529;-47
2022/04/25 02:18:44;;;;;;;9.70;9.50;;;22.40;49.40;;;;;;5074590;28;20451;-47
2022/04/25 02:21:11;;;;;;;10.50;10.20;;;22.40;49.50;;;;;;5074131;28;20439;-48
2022/04/25 02:23:39;;;;;;;9.90;9.70;;;22.40;49.50;;;;;;5074107;28;20475;-47
2022/04/25 02:26:06;;;;;;;10.00;9.70;;;22.40;49.60;;;;;;5074302;28;20500;-47
2022/04/25 02:28:33;;;;;;;9.93;9.63;;;22.40;49.60;;;;;;5074909;28;20552;-47
2022/04/25 02:31:04;;;;;;;9.00;8.80;;;22.60;49.40;;;;;;5085348;28;20471;-47
2022/04/25 02:33:31;;;;;;;10.30;10.00;;;22.70;49.20;;;;;;5074042;28;20464;-47
2022/04/25 02:35:58;;;;;;;10.07;9.77;;;22.80;49.10;;;;;;5074172;28;20971;-47
2022/04/25 02:38:24;;;;;;;9.73;9.43;;;22.80;48.90;;;;;;5073903;28;20805;-48
2022/04/25 02:41:04;;;;;;;10.33;10.03;;;22.90;48.90;;;;;;5078407;28;20443;-47
2022/04/25 02:43:32;;;;;;;10.17;9.83;;;22.90;48.80;;;;;;5094020;28;20475;-47
2022/04/25 02:45:59;;;;;;;9.60;9.30;;;22.90;48.80;;;;;;5094281;28;20439;-48
2022/04/25 02:48:27;;;;;;;10.23;9.93;;;22.90;48.80;;;;;;5093892;28;20478;-47
2022/04/25 02:50:54;;;;;;;9.80;9.60;;;22.90;48.80;;;;;;5094100;28;20439;-46
2022/04/25 02:53:24;;;;;;;10.40;10.00;;;22.90;48.80;;;;;;5084588;28;20463;-48
2022/04/25 02:55:51;;;;;;;10.70;10.40;;;22.90;48.80;;;;;;5073881;28;20847;-48
2022/04/25 02:58:18;;;;;;;10.10;9.80;;;22.90;48.90;;;;;;5073275;28;20444;-47
2022/04/25 03:00:45;;;;;;;10.13;9.70;;;22.80;48.90;;;;;;5073398;28;20448;-47
2022/04/25 03:03:12;;;;;;;11.03;10.70;;;22.80;48.90;;;;;;5073458;28;20452;-47
2022/04/25 03:05:41;;;;;;;10.67;10.37;;;22.80;48.90;;;;;;5081761;28;20454;-47
2022/04/25 03:08:08;;;;;;;10.30;10.00;;;22.80;49.00;;;;;;5093211;28;20532;-47
2022/04/25 03:10:35;;;;;;;10.90;10.60;;;22.80;49.00;;;;;;5093453;28;20450;-47
2022/04/25 03:13:02;;;;;;;10.73;10.43;;;22.80;49.00;;;;;;5092485;28;20932;-47
2022/04/25 03:15:28;;;;;;;11.73;11.43;;;22.70;49.00;;;;;;5073074;28;20439;-47
2022/04/25 03:17:55;;;;;;;11.33;10.93;;;22.70;49.10;;;;;;5072930;28;20450;-47
2022/04/25 03:20:23;;;;;;;10.70;10.40;;;22.70;49.10;;;;;;5072891;28;20447;-47
2022/04/25 03:22:51;;;;;;;10.40;10.10;;;22.70;49.10;;;;;;5073080;28;20474;-47
2022/04/25 03:25:18;;;;;;;10.90;10.60;;;22.70;49.10;;;;;;5091884;28;20836;-46
2022/04/25 03:27:44;;;;;;;10.87;10.57;;;22.60;49.10;;;;;;5092837;28;20470;-47
2022/04/25 03:30:11;;;;;;;11.10;10.80;;;22.60;49.20;;;;;;5093044;28;20446;-46
2022/04/25 03:32:38;;;;;;;11.20;10.90;;;22.60;49.20;;;;;;5093228;28;20804;-47
2022/04/25 03:35:06;;;;;;;10.90;10.60;;;22.60;49.20;;;;;;5092744;28;20473;-48
2022/04/25 03:37:34;;;;;;;10.83;10.53;;;22.60;49.30;;;;;;5052496;28;20478;-47
2022/04/25 03:40:05;;;;;;;12.47;12.17;;;22.60;49.40;;;;;;5081617;28;20500;-47
2022/04/25 03:42:31;;;;;;;11.90;11.60;;;22.50;49.30;;;;;;5092812;28;20537;-47
2022/04/25 03:45:00;;;;;;;11.30;11.00;;;22.50;49.40;;;;;;5092896;28;20998;-47
2022/04/25 03:47:29;;;;;;;12.10;11.70;;;22.50;49.50;;;;;;5091650;28;20450;-47
2022/04/25 03:49:56;;;;;;;11.97;11.57;;;22.50;49.50;;;;;;5072501;28;20813;-47
2022/04/25 03:52:23;;;;;;;12.10;11.60;;;22.50;49.70;;;;;;5072377;28;20978;-47
2022/04/25 03:57:36;;;;;;;11.83;11.40;;;22.60;50.00;;;;;;5087934;28;20430;-47
2022/04/25 04:00:05;;;;;;;11.93;11.63;;;22.90;49.70;;;;;;5092522;28;20445;-47
2022/04/25 04:02:32;;;;;;;12.60;12.20;;;23.10;49.30;;;;;;5092451;28;20455;-47
2022/04/25 04:04:58;;;;;;;12.20;11.80;;;23.20;48.90;;;;;;5092634;28;20919;-47
2022/04/25 04:07:25;;;;;;;12.13;11.77;;;23.30;48.70;;;;;;5077923;28;20442;-47
2022/04/25 04:09:52;;;;;;;11.80;11.50;;;23.40;48.60;;;;;;5071981;28;20480;-47
2022/04/25 04:12:20;;;;;;;11.57;11.27;;;23.40;48.50;;;;;;5072071;28;20811;-47
2022/04/25 04:14:48;;;;;;;12.07;11.67;;;23.50;48.40;;;;;;5077569;28;20462;-48
2022/04/25 04:17:17;;;;;;;11.97;11.60;;;23.50;48.40;;;;;;5091949;28;20939;-47
2022/04/25 04:19:47;;;;;;;12.13;11.83;;;23.50;48.30;;;;;;5092098;28;20441;-46
2022/04/25 04:22:14;;;;;;;11.90;11.60;;;23.50;48.30;;;;;;5092516;28;20443;-48
2022/04/25 04:24:40;;;;;;;11.73;11.43;;;23.50;48.30;;;;;;5086990;28;20844;-49
2022/04/25 04:27:08;;;;;;;12.60;12.27;;;23.50;48.30;;;;;;5071617;28;20447;-47
2022/04/25 04:29:35;;;;;;;11.80;11.50;;;23.50;48.20;;;;;;5071756;28;20498;-47
2022/04/25 04:32:06;;;;;;;12.03;11.73;;;23.50;48.30;;;;;;5071734;28;20451;-47
2022/04/25 04:34:33;;;;;;;12.40;12.00;;;23.50;48.30;;;;;;5071757;28;20468;-47
2022/04/25 04:37:00;;;;;;;13.50;13.10;;;23.50;48.30;;;;;;5078786;28;20451;-47
2022/04/25 04:39:27;;;;;;;12.80;12.40;;;23.70;48.10;;;;;;5091807;28;20497;-47
2022/04/25 04:41:55;;;;;;;13.00;12.60;;;23.80;47.90;;;;;;5091900;28;20450;-47
2022/04/25 04:44:21;;;;;;;13.97;13.43;;;23.90;48.20;;;;;;5091684;28;20470;-47
2022/04/25 04:46:48;;;;;;;15.33;14.33;;;23.90;48.80;;;;;;5091608;28;20450;-46
2022/04/25 04:49:17;;;;;;;16.40;15.13;;;24.00;51.10;;;;;;5081572;28;20479;-47
2022/04/25 04:51:44;;;;;;;16.17;15.27;;;24.10;53.30;;;;;;5071639;28;20451;-48
2022/04/25 04:54:11;;;;;;;15.00;13.70;;;24.10;55.20;;;;;;5074251;28;20458;-48
2022/04/25 04:56:37;;;;;;;15.93;15.03;;;24.10;54.40;;;;;;5091516;28;20970;-47
2022/04/25 04:59:05;;;;;;;18.97;16.13;;;24.20;53.10;;;;;;5091906;28;20434;-50
2022/04/25 05:01:32;;;;;;;17.17;15.80;;;24.30;52.10;;;;;;5091493;28;20486;-48
2022/04/25 05:03:59;;;;;;;15.30;14.40;;;24.30;51.40;;;;;;5091493;28;20466;-48
2022/04/25 05:06:27;;;;;;;18.43;16.93;;;24.40;51.10;;;;;;5091298;28;20439;-46
2022/04/25 05:08:54;;;;;;;15.10;13.80;;;24.40;50.50;;;;;;5091445;28;20474;-49
2022/04/25 05:11:21;;;;;;;15.10;13.93;;;24.40;50.20;;;;;;5091729;28;20854;-49
2022/04/25 05:13:48;;;;;;;16.13;15.23;;;24.40;49.90;;;;;;5091419;28;20829;-46
2022/04/25 05:16:15;;;;;;;14.73;14.00;;;24.40;49.60;;;;;;5091535;28;20447;-49
2022/04/25 05:18:44;;;;;;;14.37;13.47;;;24.40;49.40;;;;;;5091230;28;20932;-47
2022/04/25 05:21:13;;;;;;;15.03;14.33;;;24.40;49.20;;;;;;5091504;28;20549;-47
2022/04/25 05:23:42;;;;;;;14.93;13.93;;;24.40;49.10;;;;;;5091664;28;20490;-47
2022/04/25 05:26:09;;;;;;;14.10;13.13;;;24.40;48.90;;;;;;5091506;28;20439;-49
2022/04/25 05:28:36;;;;;;;14.47;13.47;;;24.40;48.80;;;;;;5091382;28;20501;-46
2022/04/25 05:31:03;;;;;;;13.40;12.90;;;24.40;48.70;;;;;;5091313;28;20445;-48
2022/04/25 05:33:30;;;;;;;14.43;13.53;;;24.40;48.60;;;;;;5091574;28;20470;-47
2022/04/25 05:35:57;;;;;;;12.97;12.47;;;24.40;48.50;;;;;;5091341;28;20438;-49
2022/04/25 05:38:23;;;;;;;14.60;13.80;;;24.30;48.40;;;;;;5091018;28;20468;-49
2022/04/25 05:40:52;;;;;;;14.10;13.30;;;24.30;48.40;;;;;;5091516;28;20438;-47
2022/04/25 05:43:19;;;;;;;14.10;13.40;;;24.30;48.30;;;;;;5091074;28;20470;-49
2022/04/25 05:45:47;;;;;;;11.77;11.30;;;24.30;48.30;;;;;;5091181;28;20477;-49
2022/04/25 05:53:42;;;;;;;13.00;12.20;;;24.20;48.20;;;;;;5091214;28;20437;-47
2022/04/25 05:56:10;;;;;;;12.20;11.60;;;24.20;48.20;;;;;;5091468;28;20443;-49
2022/04/25 05:58:37;;;;;;;12.30;11.70;;;24.10;48.20;;;;;;5090702;28;20442;-47
2022/04/25 06:01:04;;;;;;;13.13;12.23;;;24.10;48.20;;;;;;5091055;28;20788;-47
2022/04/25 06:03:30;;;;;;;12.63;11.97;;;24.10;48.20;;;;;;5091186;28;20463;-49
2022/04/25 06:05:57;;;;;;;12.80;12.00;;;24.10;48.20;;;;;;5091054;28;20446;-50
2022/04/25 06:08:24;;;;;;;12.63;12.00;;;24.10;48.20;;;;;;5094361;28;20442;-50
2022/04/25 06:10:51;;;;;;;13.03;12.27;;;24.10;48.20;;;;;;5094503;28;20446;-48
2022/04/25 06:13:19;;;;;;;13.10;12.30;;;24.00;48.10;;;;;;5094548;28;20466;-47
2022/04/25 06:15:45;;;;;;;12.20;11.40;;;24.00;48.10;;;;;;5094778;28;20438;-47
2022/04/25 06:18:12;;;;;;;12.43;11.93;;;23.90;48.10;;;;;;5094252;28;20443;-49
2022/04/25 06:20:39;;;;;;;12.40;12.00;;;23.90;48.10;;;;;;5094448;28;20442;-48
2022/04/25 06:23:06;;;;;;;12.80;11.90;;;23.90;48.10;;;;;;5094297;28;20446;-47
2022/04/25 06:25:33;;;;;;;12.03;11.53;;;23.90;48.10;;;;;;5094215;28;20447;-49
2022/04/25 06:28:00;;;;;;;12.07;11.40;;;23.80;48.10;;;;;;5094125;28;20790;-47
2022/04/25 06:30:29;;;;;;;12.57;12.10;;;23.80;48.10;;;;;;5094245;28;20979;-47
2022/04/25 06:32:56;;;;;;;13.00;12.43;;;23.80;48.20;;;;;;5094308;28;20503;-47
2022/04/25 06:35:24;;;;;;;12.73;12.03;;;23.80;48.20;;;;;;5094125;28;20450;-49
2022/04/25 06:37:51;;;;;;;12.60;12.00;;;23.70;48.10;;;;;;5094232;28;20443;-47
2022/04/25 06:40:18;;;;;;;11.20;10.60;;;23.70;48.20;;;;;;5094229;28;20439;-50
2022/04/25 06:42:46;;;;;;;11.57;11.07;;;23.70;48.20;;;;;;5094155;28;20450;-52
2022/04/25 06:45:13;;;;;;;11.67;11.20;;;23.70;48.20;;;;;;5094347;28;20489;-47
2022/04/25 06:47:42;;;;;;;11.37;10.97;;;23.60;48.20;;;;;;5093672;28;20450;-47
2022/04/25 06:50:09;;;;;;;12.20;11.60;;;23.60;48.20;;;;;;5093581;28;20569;-47
2022/04/25 06:52:36;;;;;;;12.23;11.87;;;23.60;48.20;;;;;;5093789;28;20480;-47
2022/04/25 06:55:04;;;;;;;12.03;11.53;;;23.60;48.80;;;;;;5093710;28;20462;-44
2022/04/25 06:57:33;;;;;;;12.30;11.70;;;23.50;48.20;;;;;;5093472;28;20761;-47
2022/04/25 07:00:00;;;;;;;12.60;12.10;;;23.50;48.30;;;;;;5093679;28;20482;-47
2022/04/25 07:02:26;;;;;;;11.50;11.00;;;23.50;48.30;;;;;;5093705;28;20443;-47
2022/04/25 07:04:54;;;;;;;12.27;11.87;;;23.50;48.30;;;;;;5093586;28;20470;-47
2022/04/25 07:07:21;;;;;;;13.10;12.70;;;23.50;48.40;;;;;;5093356;28;20798;-47
2022/04/25 07:09:48;;;;;;;12.37;11.97;;;23.50;48.40;;;;;;5093483;28;20478;-47
2022/04/25 07:12:15;;;;;;;11.60;11.30;;;23.40;48.40;;;;;;5093345;28;20450;-48
2022/04/25 07:14:42;;;;;;;11.43;11.03;;;23.40;48.40;;;;;;5093257;28;20502;-47
2022/04/25 07:17:09;;;;;;;12.60;12.10;;;23.40;48.40;;;;;;5092746;28;20442;-47
2022/04/25 07:19:39;;;;;;;12.63;12.13;;;23.40;48.40;;;;;;5093342;28;20812;-47
2022/04/25 07:30:34;;;;;;;12.90;12.40;;;23.30;48.50;;;;;;5093427;28;20477;-47
2022/04/25 07:33:01;;;;;;;12.73;12.23;;;23.30;48.60;;;;;;5092929;28;20476;-47
2022/04/25 07:35:28;;;;;;;12.07;11.57;;;23.20;48.50;;;;;;5093010;28;20924;-47
2022/04/25 07:37:56;;;;;;;12.23;11.83;;;23.20;48.60;;;;;;5092821;28;20575;-47
2022/04/25 07:40:23;;;;;;;11.40;11.00;;;23.20;48.60;;;;;;5092875;28;20450;-47
2022/04/25 07:42:50;;;;;;;11.60;11.20;;;23.20;48.60;;;;;;5092883;28;20438;-47
2022/04/25 07:45:17;;;;;;;12.10;11.70;;;23.20;48.60;;;;;;5092595;28;20474;-47
2022/04/25 07:47:45;;;;;;;12.37;11.60;;;23.20;48.60;;;;;;5092684;28;20819;-48
2022/04/25 07:50:11;;;;;;;12.47;11.97;;;23.10;48.50;;;;;;5092708;28;20514;-47
2022/04/25 07:52:38;;;;;;;12.13;11.73;;;23.10;48.50;;;;;;5092548;28;20442;-47
2022/04/25 07:55:08;;;;;;;12.90;12.40;;;23.10;48.50;;;;;;5092589;28;20459;-47
2022/04/25 07:57:35;;;;;;;11.50;11.10;;;23.10;48.60;;;;;;5092443;28;20804;-47
2022/04/25 08:00:02;;;;;;;11.93;11.63;;;23.10;48.60;;;;;;5092499;28;20457;-47
2022/04/25 08:02:29;;;;;;;12.30;11.80;;;23.10;48.60;;;;;;5092743;28;20811;-47
2022/04/25 08:04:56;;;;;;;12.10;11.70;;;23.00;49.10;;;;;;5092484;28;20663;-47
2022/04/25 08:07:23;;;;;;;12.10;11.60;;;23.00;48.60;;;;;;5092079;28;20442;-47
2022/04/25 08:09:50;;;;;;;12.00;11.40;;;23.00;48.70;;;;;;5092253;28;20491;-48
2022/04/25 08:18:00;;;;;;;12.20;11.80;;;23.00;48.70;;;;;;5060614;28;20419;-47
2022/04/25 08:20:28;;;;;;;11.60;11.20;;;22.90;48.60;;;;;;5092239;28;20440;-47
2022/04/25 08:22:55;;;;;;;12.00;11.60;;;22.90;48.60;;;;;;5092191;28;20495;-47
2022/04/25 08:25:22;;;;;;;12.57;12.07;;;22.90;48.70;;;;;;5092161;28;20458;-47
2022/04/25 08:27:50;;;;;;;11.70;11.40;;;22.90;48.70;;;;;;5091697;28;20533;-47
2022/04/25 08:30:19;;;;;;;11.43;11.03;;;22.90;48.70;;;;;;5091193;28;20478;-47
2022/04/25 08:32:47;;;;;;;11.67;11.30;;;22.90;48.70;;;;;;5092092;28;20453;-47
2022/04/25 08:35:14;;;;;;;11.20;10.90;;;22.90;48.70;;;;;;5091950;28;20876;-48
2022/04/25 08:37:41;;;;;;;11.97;11.60;;;22.90;48.80;;;;;;5091812;28;20457;-50
2022/04/25 08:40:09;;;;;;;11.83;11.43;;;22.80;48.70;;;;;;5091854;28;20854;-47
2022/04/25 08:42:36;;;;;;;11.77;11.40;;;22.80;48.70;;;;;;5091823;28;20446;-47
2022/04/25 08:45:07;;;;;;;11.60;11.30;;;22.80;48.80;;;;;;5091722;28;20493;-49
2022/04/25 08:47:40;;;;;;;11.57;11.27;;;22.80;48.80;;;;;;5091681;28;20451;-47
2022/04/25 08:50:08;;;;;;;12.47;11.97;;;22.80;48.90;;;;;;5091762;28;20496;-47
2022/04/25 08:52:35;;;;;;;12.47;12.03;;;22.70;48.80;;;;;;5091723;28;20774;-47
2022/04/25 08:55:03;;;;;;;11.63;11.23;;;22.70;48.80;;;;;;5091731;28;20462;-47
2022/04/25 08:57:32;;;;;;;10.90;10.60;;;22.70;48.90;;;;;;5091432;28;20446;-47
2022/04/25 09:00:03;;;;;;;11.07;10.77;;;22.70;48.90;;;;;;5091628;28;20449;-48
2022/04/25 09:02:31;;;;;;;10.60;10.20;;;22.60;48.90;;;;;;5091791;28;20816;-48
2022/04/25 09:04:58;;;;;;;10.70;10.40;;;22.60;49.00;;;;;;5091347;28;20470;-46
2022/04/25 09:07:25;;;;;;;10.83;10.53;;;22.60;49.00;;;;;;5091581;28;20439;-47
2022/04/25 09:09:52;;;;;;;10.73;10.43;;;22.60;49.00;;;;;;5091431;28;20536;-47
2022/04/25 09:12:19;;;;;;;10.57;10.27;;;22.60;49.10;;;;;;5091486;28;20963;-47
2022/04/25 09:14:47;;;;;;;10.40;10.10;;;22.60;49.10;;;;;;5091434;28;20462;-47
2022/04/25 09:17:14;;;;;;;10.83;10.17;;;22.60;49.10;;;;;;5091262;28;20443;-48
2022/04/25 09:19:42;;;;;;;10.33;9.97;;;22.60;49.10;;;;;;5091395;28;20453;-48
2022/04/25 09:22:10;;;;;;;11.30;10.90;;;22.50;49.10;;;;;;5091417;28;20804;-47
2022/04/25 09:24:45;;;;;;;10.50;10.20;;;22.50;49.10;;;;;;5091384;28;20978;-50
2022/04/25 09:27:14;;;;;;;11.33;11.03;;;22.50;49.10;;;;;;5091269;28;20450;-48
2022/04/25 09:29:41;;;;;;;12.07;11.60;;;22.50;49.10;;;;;;5091550;28;21097;-47
2022/04/25 09:32:10;;;;;;;11.20;10.80;;;22.50;49.60;;;;;;5091225;28;20943;-48
2022/04/25 09:37:40;;;;;;;11.53;11.13;;;22.50;49.10;;;;;;5084358;28;20449;-48
2022/04/25 09:40:08;;;;;;;11.63;11.23;;;22.50;49.50;;;;;;5089522;28;20828;-49
2022/04/25 09:42:36;;;;;;;11.80;11.27;;;22.40;50.20;;;;;;5095184;28;20438;-47
2022/04/25 09:45:04;;;;;;;12.10;11.70;;;22.40;51.00;;;;;;5095210;28;20850;-47
2022/04/25 09:47:32;;;;;;;12.40;11.80;;;22.40;51.30;;;;;;5094887;28;20931;-47
2022/04/25 09:50:01;;;;;;;12.60;12.20;;;22.30;51.50;;;;;;5075374;28;20809;-47
2022/04/25 09:52:29;;;;;;;12.30;11.90;;;22.30;51.90;;;;;;5075044;28;20440;-47
2022/04/25 09:54:58;;;;;;;12.67;12.17;;;22.30;52.40;;;;;;5074520;28;20467;-47
2022/04/25 09:57:32;;;;;;;12.10;11.60;;;22.30;53.20;;;;;;5074577;28;20444;-47
2022/04/25 09:59:59;;;;;;;13.33;12.83;;;22.30;54.20;;;;;;5074594;28;20439;-46
2022/04/25 10:02:26;;;;;;;14.53;13.83;;;22.30;54.70;;;;;;5074791;28;20451;-46
2022/04/25 10:04:53;;;;;;;15.23;14.53;;;22.30;55.80;;;;;;5074707;28;20470;-46
2022/04/25 10:07:22;;;;;;;15.50;14.80;;;22.30;56.40;;;;;;5074339;28;20811;-46
2022/04/25 10:09:52;;;;;;;15.60;14.90;;;22.30;57.40;;;;;;5074300;28;20475;-46
2022/04/25 10:12:20;;;;;;;15.43;14.60;;;22.30;58.10;;;;;;5084785;28;20568;-46
2022/04/25 10:14:48;;;;;;;16.30;15.60;;;22.30;58.40;;;;;;5094422;28;20813;-46
2022/04/25 10:17:16;;;;;;;15.10;14.37;;;22.30;58.50;;;;;;5094354;28;20438;-46
2022/04/25 10:19:44;;;;;;;14.17;13.63;;;22.30;58.90;;;;;;5094576;28;20446;-46
2022/04/25 10:22:11;;;;;;;14.17;13.57;;;22.30;59.20;;;;;;5093813;28;20453;-46
2022/04/25 10:24:39;;;;;;;13.97;13.47;;;22.20;59.40;;;;;;5081004;28;20464;-47
2022/04/25 10:27:12;;;;;;;15.13;14.53;;;22.20;59.50;;;;;;5074038;28;20450;-46
2022/04/25 10:29:45;;;;;;;13.50;12.90;;;22.20;59.50;;;;;;5074074;28;20462;-46
2022/04/25 10:32:17;;;;;;;13.70;13.20;;;22.20;59.40;;;;;;5077958;28;20447;-47
2022/04/25 10:34:51;;;;;;;14.67;14.00;;;22.20;59.30;;;;;;5090572;28;20466;-46
2022/04/25 10:37:31;;;;;;;13.37;12.87;;;22.30;59.20;;;;;;5094288;28;20442;-47
2022/04/25 10:39:59;;;;;;;13.07;12.47;;;22.30;58.80;;;;;;5094003;28;20450;-46
2022/04/25 10:45:12;;;;;;;13.37;12.77;;;22.40;58.20;;;;;;5094214;28;20464;-47
2022/04/25 10:47:57;;;;;;;13.03;12.53;;;22.40;57.80;;;;;;5093712;28;20542;-47
2022/04/25 10:50:24;;;;;;;12.97;12.47;;;22.40;57.50;;;;;;5093798;28;20889;-47
2022/04/25 10:52:55;;;;;;;13.50;13.00;;;22.40;57.20;;;;;;5093064;28;20456;-48
2022/04/25 10:55:43;;;;;;;12.80;12.30;;;22.40;57.10;;;;;;5093869;28;20446;-47
2022/04/25 10:58:22;;;;;;;11.63;11.13;;;22.40;56.80;;;;;;5093522;28;20449;-46
2022/04/25 11:00:53;;;;;;;13.13;12.63;;;22.40;56.60;;;;;;5093933;28;20441;-46
2022/04/25 11:03:29;;;;;;;12.70;12.10;;;22.40;56.50;;;;;;5093601;28;20549;-48
2022/04/25 11:05:57;;;;;;;13.13;12.63;;;22.40;56.30;;;;;;5093637;28;20905;-47
2022/04/25 11:08:28;;;;;;;12.50;12.07;;;22.40;56.10;;;;;;5093414;28;20447;-48
2022/04/25 11:11:08;;;;;;;12.20;11.80;;;22.40;56.00;;;;;;5093690;28;20474;-46
2022/04/25 11:14:01;;;;;;;12.63;12.23;;;22.40;55.90;;;;;;5093456;28;21060;-49
2022/04/25 11:16:29;;;;;;;13.10;12.70;;;22.40;56.20;;;;;;5093382;28;20458;-47
2022/04/25 11:19:16;;;;;;;11.30;11.00;;;22.30;55.50;;;;;;5093306;28;20811;-47
2022/04/25 11:21:46;;;;;;;11.50;11.20;;;22.30;55.50;;;;;;5093358;28;20796;-46
2022/04/25 11:24:30;;;;;;;13.00;12.60;;;22.40;55.30;;;;;;5093493;28;20964;-46
2022/04/25 11:26:59;;;;;;;13.60;13.20;;;22.40;55.20;;;;;;5093024;28;20453;-46
2022/04/25 11:29:26;;;;;;;12.50;12.20;;;22.40;55.10;;;;;;5093121;28;20451;-46
2022/04/25 11:32:22;;;;;;;13.60;13.10;;;22.40;55.00;;;;;;5092968;28;20821;-47
2022/04/25 11:34:50;;;;;;;12.80;12.40;;;22.40;55.00;;;;;;5093127;28;20469;-49
2022/04/25 11:37:18;;;;;;;12.10;11.80;;;22.40;54.80;;;;;;5092794;28;20438;-47
2022/04/25 11:39:57;;;;;;;12.40;12.10;;;22.40;54.80;;;;;;5093020;28;20811;-46
2022/04/25 11:42:30;;;;;;;12.20;11.90;;;22.40;54.70;;;;;;5092907;28;20808;-48
2022/04/25 11:44:57;;;;;;;12.47;12.07;;;22.40;54.60;;;;;;5093043;28;20475;-47
2022/04/25 11:47:26;;;;;;;13.23;12.73;;;22.40;54.50;;;;;;5092632;28;20983;-47
2022/04/25 11:49:56;;;;;;;13.27;12.87;;;22.40;54.40;;;;;;5092839;28;20807;-47
2022/04/25 11:52:24;;;;;;;12.40;12.10;;;22.40;54.30;;;;;;5092765;28;20447;-49
2022/04/25 11:54:50;;;;;;;12.20;11.80;;;22.40;54.20;;;;;;5092567;28;20503;-47
2022/04/25 11:57:17;;;;;;;11.97;11.67;;;22.40;54.10;;;;;;5092507;28;20563;-47
2022/04/25 11:59:44;;;;;;;11.80;11.50;;;22.40;54.10;;;;;;5092486;28;20449;-46
2022/04/25 12:02:11;;;;;;;12.33;11.93;;;22.40;54.00;;;;;;5092500;28;20445;-46
2022/04/25 12:04:41;;;;;;;12.77;12.20;;;22.40;53.90;;;;;;5092386;28;20463;-47
2022/04/25 12:07:09;;;;;;;12.43;12.13;;;22.50;53.90;;;;;;5092584;28;20857;-49
2022/04/25 12:18:13;;;;;;;11.90;11.53;;;22.70;53.00;;;;;;5092459;28;20564;-49
2022/04/25 12:20:42;;;;;;;12.50;12.10;;;22.70;53.10;;;;;;5092421;28;20442;-47
2022/04/25 12:23:09;;;;;;;11.60;11.30;;;22.60;53.10;;;;;;5091997;28;20757;-47
2022/04/25 12:25:41;;;;;;;12.13;11.80;;;22.60;53.10;;;;;;5092206;28;20445;-47
2022/04/25 12:28:16;;;;;;;12.37;12.00;;;22.60;53.20;;;;;;5091951;28;20446;-47
2022/04/25 12:30:52;;;;;;;11.57;11.27;;;22.60;53.20;;;;;;5091982;28;20477;-47
2022/04/25 12:33:21;;;;;;;11.23;10.93;;;22.70;53.40;;;;;;5092064;28;20827;-46
2022/04/25 12:35:51;;;;;;;11.87;11.57;;;22.80;52.80;;;;;;5073844;28;20537;-47
2022/04/25 12:38:40;;;;;;;12.13;11.83;;;22.90;52.60;;;;;;5091703;28;20439;-47
2022/04/25 12:41:08;;;;;;;11.80;11.50;;;22.80;52.20;;;;;;5091863;28;20870;-47
2022/04/25 12:43:41;;;;;;;11.60;11.30;;;22.80;52.20;;;;;;5092441;28;20481;-49
2022/04/25 12:46:08;;;;;;;12.10;11.77;;;22.80;52.30;;;;;;5091828;28;20443;-49
2022/04/25 12:49:00;;;;;;;11.23;10.93;;;22.90;52.20;;;;;;5091604;28;20835;-52
2022/04/25 12:51:31;;;;;;;11.90;11.50;;;22.90;52.00;;;;;;5091704;28;20489;-53
2022/04/25 12:53:58;;;;;;;11.63;11.33;;;22.80;52.00;;;;;;5091658;28;20980;-47
2022/04/25 12:56:26;;;;;;;12.03;11.73;;;22.80;52.10;;;;;;5091570;28;20455;-48
2022/04/25 12:58:53;;;;;;;12.20;11.80;;;22.80;52.20;;;;;;5091629;28;20891;-50
2022/04/25 13:01:35;;;;;;;10.97;10.67;;;22.70;52.10;;;;;;5091785;28;21000;-49
2022/04/25 13:04:13;;;;;;;10.70;10.40;;;22.70;52.30;;;;;;5089170;28;20471;-49
2022/04/25 13:06:42;;;;;;;11.20;10.90;;;22.70;52.40;;;;;;5091362;28;20476;-48
2022/04/25 13:09:09;;;;;;;11.20;10.90;;;22.70;52.40;;;;;;5091707;28;20449;-49
2022/04/25 13:11:37;;;;;;;11.10;10.80;;;22.70;52.50;;;;;;5091461;28;20478;-47
2022/04/25 13:14:05;;;;;;;11.70;11.40;;;22.60;52.40;;;;;;5091457;28;20831;-48
2022/04/25 13:16:32;;;;;;;11.83;11.53;;;22.60;52.50;;;;;;5093921;28;20453;-46